createdAt,value
2023-01-17T00:04:38.802Z,29.52
2023-01-17T00:09:57.517Z,16.20
2023-01-17T00:15:02.755Z,18.88
2023-01-17T00:20:25.604Z,13.27
2023-01-17T00:25:58.338Z,18.77
2023-01-17T00:31:03.146Z,10.60
2023-01-17T00:36:08.356Z,7.93
2023-01-17T00:41:14.118Z,11.48
2023-01-17T00:46:37.313Z,15.05
2023-01-17T00:51:59.936Z,11.23
2023-01-17T00:57:23.790Z,11.27
2023-01-17T01:02:46.715Z,12.90
2023-01-17T01:08:08.802Z,15.35
2023-01-17T01:13:30.999Z,18.48
2023-01-17T01:18:53.711Z,17.52
2023-01-17T01:24:16.770Z,17.88
2023-01-17T01:29:40.315Z,13.23
2023-01-17T01:34:44.519Z,13.88
2023-01-17T01:39:53.886Z,19.25
2023-01-17T01:44:57.701Z,16.60
2023-01-17T01:50:05.821Z,11.60
2023-01-17T01:55:19.781Z,10.88
2023-01-17T02:00:29.876Z,14.02
2023-01-17T02:05:34.900Z,13.40
2023-01-17T02:10:42.017Z,14.60
2023-01-17T02:15:54.719Z,13.13
2023-01-17T02:21:23.000Z,13.35
2023-01-17T02:26:51.271Z,16.23
2023-01-17T02:32:21.020Z,11.93
2023-01-17T02:37:41.124Z,12.65
2023-01-17T02:42:50.954Z,11.05
2023-01-17T02:47:55.364Z,11.05
2023-01-17T02:53:05.822Z,11.52
2023-01-17T02:58:41.955Z,11.88
2023-01-17T03:03:56.025Z,12.38
2023-01-17T03:09:01.527Z,14.20
2023-01-17T03:14:05.668Z,13.93
2023-01-17T03:19:10.209Z,10.57
2023-01-17T03:24:14.046Z,9.25
2023-01-17T03:29:19.202Z,8.73
2023-01-17T03:34:24.635Z,11.48
2023-01-17T03:39:28.868Z,19.20
2023-01-17T03:44:32.231Z,16.50
2023-01-17T03:49:40.179Z,20.17
2023-01-17T03:54:44.450Z,15.88
2023-01-17T03:59:48.927Z,17.15
2023-01-17T04:04:53.523Z,15.30
2023-01-17T04:09:57.819Z,14.52
2023-01-17T04:15:01.894Z,15.18
2023-01-17T04:20:07.304Z,14.60
2023-01-17T04:25:11.123Z,17.20
2023-01-17T04:30:15.585Z,15.75
2023-01-17T04:35:20.488Z,18.05
2023-01-17T04:40:25.309Z,15.32
2023-01-17T04:45:29.078Z,12.77
2023-01-17T04:50:33.535Z,15.43
2023-01-17T04:55:37.721Z,13.68
2023-01-17T05:00:42.328Z,17.55
2023-01-17T05:05:46.501Z,10.30
2023-01-17T05:10:51.203Z,14.88
2023-01-17T05:15:56.678Z,15.18
2023-01-17T05:21:04.860Z,11.73
2023-01-17T05:26:08.851Z,11.75
2023-01-17T05:31:13.637Z,12.23
2023-01-17T05:36:19.221Z,9.75
2023-01-17T05:41:24.858Z,16.33
2023-01-17T05:46:29.714Z,16.08
2023-01-17T05:51:33.953Z,15.32
2023-01-17T05:56:37.896Z,15.93
2023-01-17T06:01:42.279Z,17.42
2023-01-17T06:06:46.688Z,16.95
2023-01-17T06:11:50.693Z,15.90
2023-01-17T06:16:55.186Z,17.88
2023-01-17T06:21:59.229Z,17.88
2023-01-17T06:27:03.332Z,20.90
2023-01-17T06:32:08.028Z,19.00
2023-01-17T06:37:12.343Z,20.92
2023-01-17T06:42:16.230Z,18.98
2023-01-17T06:47:21.085Z,21.10
2023-01-17T06:52:25.226Z,22.00
2023-01-17T06:57:30.068Z,19.42
2023-01-17T07:02:35.228Z,19.50
2023-01-17T07:07:39.423Z,17.85
2023-01-17T07:12:44.213Z,17.30
2023-01-17T07:17:49.100Z,16.05
2023-01-17T07:22:53.592Z,12.82
2023-01-17T07:27:58.691Z,14.77
2023-01-17T07:33:03.400Z,14.65
2023-01-17T07:38:12.046Z,12.80
2023-01-17T07:43:17.400Z,15.00
2023-01-17T07:48:23.911Z,15.23
2023-01-17T07:53:30.425Z,16.73
2023-01-17T07:58:36.046Z,12.32
2023-01-17T08:03:40.477Z,12.35
2023-01-17T08:08:45.041Z,14.68
2023-01-17T08:13:48.743Z,18.20
2023-01-17T08:18:53.663Z,17.92
2023-01-17T08:23:58.036Z,18.30
2023-01-17T08:29:02.174Z,17.15
2023-01-17T08:34:06.260Z,18.38
2023-01-17T08:39:10.881Z,19.55
2023-01-17T08:44:16.064Z,20.55
2023-01-17T08:49:20.425Z,18.98
2023-01-17T08:54:23.502Z,20.77
2023-01-17T08:59:27.645Z,19.73
2023-01-17T09:04:33.752Z,22.40
2023-01-17T09:09:37.633Z,20.52
2023-01-17T09:14:43.799Z,21.35
2023-01-17T09:19:49.525Z,21.35
2023-01-17T09:24:53.369Z,19.40
2023-01-17T09:29:57.543Z,20.65
2023-01-17T09:35:01.436Z,16.13
2023-01-17T09:40:07.216Z,16.15
2023-01-17T09:45:19.087Z,14.60
2023-01-17T09:50:34.377Z,13.23
2023-01-17T09:56:01.840Z,14.38
2023-01-17T10:01:24.191Z,13.82
2023-01-17T10:06:34.405Z,14.00
2023-01-17T10:11:45.421Z,14.20
2023-01-17T10:17:21.892Z,13.73
2023-01-17T10:22:43.357Z,12.82
2023-01-17T10:28:00.659Z,11.32
2023-01-17T10:33:31.794Z,9.75
2023-01-17T10:38:41.861Z,12.13
2023-01-17T10:43:54.902Z,10.00
2023-01-17T10:49:01.791Z,9.80
2023-01-17T10:54:05.162Z,10.02
2023-01-17T10:59:23.735Z,10.65
2023-01-17T11:04:36.167Z,10.80
2023-01-17T11:09:43.120Z,9.10
2023-01-17T11:15:00.636Z,10.32
2023-01-17T11:20:17.819Z,10.70
2023-01-17T11:25:24.888Z,8.82
2023-01-17T11:30:29.728Z,8.50
2023-01-17T11:35:36.805Z,8.52
2023-01-17T11:40:45.876Z,9.70
2023-01-17T11:46:16.099Z,9.93
2023-01-17T11:51:25.549Z,7.68
2023-01-17T11:56:33.686Z,10.32
2023-01-17T12:02:05.526Z,8.52
2023-01-17T12:07:21.316Z,9.77
2023-01-17T12:13:15.895Z,7.68
2023-01-17T12:18:34.533Z,8.43
2023-01-17T12:23:44.803Z,7.72
